Time;durP1;ratioP1;P1;durP2;ratioP2;P2;SDS_P1;SDS_P2;PMS_P1;PMS_P2;Temp;Humidity;BMP_temperature;BMP_pressure;BME280_temperature;BME280_humidity;BME280_pressure;Samples;Min_cycle;Max_cycle;Signal;HPM_P1;HPM_P2
2022/12/23 00:01:40;;;;;;;;;11.33;10.00;;;;;;;;5023474;28;9564;-78
2022/12/23 00:04:08;;;;;;;;;8.00;8.00;;;;;;;;5011170;28;9313;-79
2022/12/23 00:06:35;;;;;;;;;10.67;9.00;;;;;;;;5023736;28;9438;-79
2022/12/23 00:09:03;;;;;;;;;8.00;8.00;;;;;;;;5005132;28;9391;-79
2022/12/23 00:11:30;;;;;;;;;6.00;6.00;;;;;;;;5009112;28;9350;-79
2022/12/23 00:16:43;;;;;;;;;4.67;4.67;;;;;;;;5022455;28;9814;-79
2022/12/23 00:19:12;;;;;;;;;3.00;3.00;;;;;;;;5002722;28;9376;-79
2022/12/23 00:21:40;;;;;;;;;4.67;3.00;;;;;;;;5019530;28;9242;-78
2022/12/23 00:24:07;;;;;;;;;3.67;3.67;;;;;;;;5023655;28;9261;-79
2022/12/23 00:26:35;;;;;;;;;5.00;3.00;;;;;;;;5021247;28;9100;-79
2022/12/23 00:29:02;;;;;;;;;2.67;2.67;;;;;;;;5023202;28;9223;-79
2022/12/23 00:31:29;;;;;;;;;2.67;2.67;;;;;;;;5022628;28;9103;-79
2022/12/23 00:33:58;;;;;;;;;3.00;1.00;;;;;;;;5004731;28;9225;-79
2022/12/23 00:36:29;;;;;;;;;1.00;1.00;;;;;;;;5023042;28;9992;-78
2022/12/23 00:44:26;;;;;;;;;1.00;1.00;;;;;;;;5022074;28;9814;-79
2022/12/23 00:46:54;;;;;;;;;3.00;1.00;;;;;;;;5021241;28;9329;-80
2022/12/23 00:52:11;;;;;;;;;2.00;1.00;;;;;;;;5009420;28;9258;-79
2022/12/23 00:54:38;;;;;;;;;1.00;1.00;;;;;;;;5028488;28;9178;-79
2022/12/23 00:57:06;;;;;;;;;1.00;1.00;;;;;;;;5022518;28;8989;-79
2022/12/23 00:59:35;;;;;;;;;1.00;1.00;;;;;;;;5007574;28;9031;-80
2022/12/23 01:07:35;;;;;;;;;0.00;0.00;;;;;;;;5020716;28;8988;-80
2022/12/23 01:10:03;;;;;;;;;0.33;0.33;;;;;;;;5021497;28;8963;-80
2022/12/23 01:12:31;;;;;;;;;1.00;1.00;;;;;;;;5020589;28;9002;-80
2022/12/23 01:14:58;;;;;;;;;1.00;1.00;;;;;;;;5003201;28;9032;-80
2022/12/23 01:17:26;;;;;;;;;2.33;1.00;;;;;;;;5006231;28;8943;-80
2022/12/23 01:19:55;;;;;;;;;0.00;0.00;;;;;;;;5006124;28;9696;-79
2022/12/23 01:22:22;;;;;;;;;1.00;1.00;;;;;;;;4989346;28;9013;-79
2022/12/23 01:24:50;;;;;;;;;1.00;1.00;;;;;;;;5020935;28;8824;-79
2022/12/23 01:27:17;;;;;;;;;0.00;0.00;;;;;;;;5025530;28;8933;-80
2022/12/23 01:29:45;;;;;;;;;1.00;0.00;;;;;;;;5029564;28;8925;-79
2022/12/23 01:32:13;;;;;;;;;0.33;0.33;;;;;;;;5029742;28;8923;-79
2022/12/23 01:34:40;;;;;;;;;0.75;0.75;;;;;;;;5025444;28;8933;-80
2022/12/23 01:37:09;;;;;;;;;0.00;0.00;;;;;;;;5013396;28;8848;-80
2022/12/23 01:39:36;;;;;;;;;2.33;1.00;;;;;;;;5026261;28;8946;-79
2022/12/23 01:44:54;;;;;;;;;1.00;1.00;;;;;;;;5027308;28;8851;-79
2022/12/23 01:47:27;;;;;;;;;2.00;0.00;;;;;;;;5026099;28;9787;-80
2022/12/23 01:49:57;;;;;;;;;0.50;0.50;;;;;;;;5009275;28;8835;-80
2022/12/23 01:52:27;;;;;;;;;1.00;1.00;;;;;;;;5030641;28;8847;-80
2022/12/23 01:54:55;;;;;;;;;0.00;0.00;;;;;;;;5030108;28;8925;-80
2022/12/23 01:57:23;;;;;;;;;0.50;0.00;;;;;;;;5025412;28;8925;-80
2022/12/23 02:05:23;;;;;;;;;2.67;1.00;;;;;;;;5028896;28;8984;-80
2022/12/23 02:10:51;;;;;;;;;0.00;0.00;;;;;;;;5021779;28;8924;-80
2022/12/23 02:13:27;;;;;;;;;0.00;0.00;;;;;;;;5024051;28;8853;-79
2022/12/23 02:16:17;;;;;;;;;0.00;0.00;;;;;;;;5026740;28;9125;-80
2022/12/23 02:19:00;;;;;;;;;0.00;0.00;;;;;;;;5007164;28;9027;-79
2022/12/23 02:21:42;;;;;;;;;0.00;0.00;;;;;;;;5026761;28;8963;-79
2022/12/23 02:24:51;;;;;;;;;1.00;1.00;;;;;;;;5025306;28;9020;-79
2022/12/23 02:27:25;;;;;;;;;0.00;0.00;;;;;;;;5029633;28;8930;-79
2022/12/23 02:30:25;;;;;;;;;0.00;0.00;;;;;;;;5025791;28;9805;-79
2022/12/23 02:33:18;;;;;;;;;0.00;0.00;;;;;;;;5021022;28;9162;-80
2022/12/23 02:35:51;;;;;;;;;1.00;0.00;;;;;;;;5024046;28;9013;-79
2022/12/23 02:38:26;;;;;;;;;0.33;0.33;;;;;;;;5028176;28;8919;-79
2022/12/23 02:41:00;;;;;;;;;0.00;0.00;;;;;;;;5021719;28;8935;-79
2022/12/23 02:43:31;;;;;;;;;0.00;0.00;;;;;;;;5039061;28;9007;-79
2022/12/23 02:46:02;;;;;;;;;1.00;0.00;;;;;;;;5010225;28;9010;-79
2022/12/23 02:48:37;;;;;;;;;0.00;0.00;;;;;;;;5027831;28;8842;-79
2022/12/23 02:51:07;;;;;;;;;2.00;0.00;;;;;;;;5011861;28;8913;-79
2022/12/23 02:53:37;;;;;;;;;0.25;0.25;;;;;;;;5027273;28;8846;-80
2022/12/23 02:56:06;;;;;;;;;0.00;0.00;;;;;;;;5027040;28;8832;-79
2022/12/23 02:58:37;;;;;;;;;0.33;0.33;;;;;;;;4992223;28;8832;-80
2022/12/23 03:01:06;;;;;;;;;0.50;0.00;;;;;;;;5024180;28;8927;-80
2022/12/23 03:03:36;;;;;;;;;1.00;1.00;;;;;;;;5023886;28;8847;-79
2022/12/23 03:06:14;;;;;;;;;0.00;0.00;;;;;;;;5023126;28;8836;-79
2022/12/23 03:08:44;;;;;;;;;0.25;0.25;;;;;;;;5023058;28;9177;-79
2022/12/23 03:11:13;;;;;;;;;2.00;0.50;;;;;;;;5022640;28;8785;-78
2022/12/23 03:14:08;;;;;;;;;0.00;0.00;;;;;;;;5007860;28;8846;-79
2022/12/23 03:16:44;;;;;;;;;0.00;0.00;;;;;;;;5023605;28;8854;-79
2022/12/23 03:19:19;;;;;;;;;0.25;0.25;;;;;;;;5008540;28;8905;-79
2022/12/23 03:21:52;;;;;;;;;0.00;0.00;;;;;;;;5024279;28;9652;-79
2022/12/23 03:24:25;;;;;;;;;0.75;0.75;;;;;;;;5006269;28;9574;-79
2022/12/23 03:26:57;;;;;;;;;1.00;1.00;;;;;;;;5008066;28;8858;-79
2022/12/23 03:29:28;;;;;;;;;0.50;0.25;;;;;;;;5023439;28;8870;-78
2022/12/23 03:31:59;;;;;;;;;0.00;0.00;;;;;;;;5026530;28;8862;-79
2022/12/23 03:34:32;;;;;;;;;0.25;0.25;;;;;;;;5006632;28;8842;-79
2022/12/23 03:37:04;;;;;;;;;2.50;0.75;;;;;;;;5026121;28;8869;-79
2022/12/23 03:39:35;;;;;;;;;1.25;1.25;;;;;;;;5022369;28;8815;-80
2022/12/23 03:42:06;;;;;;;;;2.50;1.00;;;;;;;;5025296;28;8862;-79
2022/12/23 03:44:36;;;;;;;;;3.75;3.00;;;;;;;;5008258;28;8875;-79
2022/12/23 03:47:08;;;;;;;;;2.00;2.00;;;;;;;;5020471;28;8923;-79
2022/12/23 03:49:40;;;;;;;;;1.25;1.25;;;;;;;;5024868;28;8849;-79
2022/12/23 03:52:11;;;;;;;;;1.00;1.00;;;;;;;;5039922;28;9610;-79
2022/12/23 03:54:43;;;;;;;;;1.00;1.00;;;;;;;;5006701;28;8857;-79
2022/12/23 03:57:12;;;;;;;;;1.00;1.00;;;;;;;;5018966;28;8843;-80
2022/12/23 03:59:42;;;;;;;;;2.00;2.00;;;;;;;;5010266;28;8871;-79
2022/12/23 04:02:14;;;;;;;;;1.00;1.00;;;;;;;;5026908;28;8844;-79
2022/12/23 04:04:55;;;;;;;;;1.00;1.00;;;;;;;;5006172;28;8960;-79
2022/12/23 04:07:27;;;;;;;;;2.00;2.00;;;;;;;;5006294;28;8865;-78
2022/12/23 04:09:55;;;;;;;;;4.00;2.00;;;;;;;;5038974;28;9607;-79
2022/12/23 04:12:25;;;;;;;;;2.00;2.00;;;;;;;;4987927;28;8857;-78
2022/12/23 04:14:52;;;;;;;;;2.00;2.00;;;;;;;;5020629;28;8871;-79
2022/12/23 04:17:20;;;;;;;;;1.50;1.50;;;;;;;;5007417;28;8830;-78
2022/12/23 04:19:49;;;;;;;;;1.00;1.00;;;;;;;;5004998;28;8882;-79
2022/12/23 04:22:17;;;;;;;;;2.50;1.25;;;;;;;;5024659;28;8892;-79
2022/12/23 04:24:44;;;;;;;;;1.00;1.00;;;;;;;;5022685;28;8893;-79
2022/12/23 04:27:13;;;;;;;;;2.00;2.00;;;;;;;;5019865;28;8858;-79
2022/12/23 04:29:41;;;;;;;;;1.00;1.00;;;;;;;;5024685;28;8831;-79
2022/12/23 04:32:08;;;;;;;;;1.00;1.00;;;;;;;;5023356;28;8838;-79
2022/12/23 04:34:36;;;;;;;;;2.00;2.00;;;;;;;;5022241;28;8838;-79
2022/12/23 04:37:05;;;;;;;;;1.00;1.00;;;;;;;;5025274;28;8846;-79
2022/12/23 04:39:32;;;;;;;;;1.00;1.00;;;;;;;;5020665;28;8852;-81
2022/12/23 04:42:00;;;;;;;;;1.25;1.25;;;;;;;;5004452;28;8859;-80
2022/12/23 04:44:27;;;;;;;;;3.00;1.00;;;;;;;;5024803;28;8856;-79
2022/12/23 04:46:55;;;;;;;;;1.00;1.00;;;;;;;;5007284;28;8847;-79
2022/12/23 04:49:22;;;;;;;;;0.50;0.50;;;;;;;;5002871;28;8854;-79
2022/12/23 04:51:51;;;;;;;;;1.00;1.00;;;;;;;;5023765;28;9698;-79
2022/12/23 04:54:20;;;;;;;;;1.75;0.75;;;;;;;;5026257;28;8865;-79
2022/12/23 04:56:47;;;;;;;;;0.00;0.00;;;;;;;;5003587;28;8895;-79
2022/12/23 04:59:15;;;;;;;;;0.50;0.50;;;;;;;;5029889;28;8845;-79
2022/12/23 05:01:42;;;;;;;;;1.00;1.00;;;;;;;;5030125;28;8836;-79
2022/12/23 05:04:10;;;;;;;;;2.00;0.00;;;;;;;;5026339;28;8839;-79
2022/12/23 05:06:37;;;;;;;;;2.50;1.00;;;;;;;;5029234;28;8836;-79
2022/12/23 05:09:05;;;;;;;;;0.00;0.00;;;;;;;;5026418;28;8846;-79
2022/12/23 05:11:34;;;;;;;;;0.00;0.00;;;;;;;;5027166;28;8837;-79
2022/12/23 05:14:02;;;;;;;;;3.33;0.67;;;;;;;;5008298;28;8858;-79
2022/12/23 05:16:30;;;;;;;;;2.25;0.00;;;;;;;;5026893;28;8878;-80
2022/12/23 05:18:57;;;;;;;;;0.00;0.00;;;;;;;;5026879;28;8946;-80
2022/12/23 05:21:24;;;;;;;;;0.00;0.00;;;;;;;;5026836;28;8878;-79
2022/12/23 05:23:52;;;;;;;;;0.25;0.25;;;;;;;;5005475;28;9662;-79
2022/12/23 05:26:19;;;;;;;;;1.00;1.00;;;;;;;;5025223;28;8867;-79
2022/12/23 05:28:48;;;;;;;;;2.00;0.75;;;;;;;;5024955;28;8861;-79
2022/12/23 05:31:16;;;;;;;;;0.00;0.00;;;;;;;;5008401;28;9654;-78
2022/12/23 05:33:43;;;;;;;;;0.00;0.00;;;;;;;;5024804;28;8885;-79
2022/12/23 05:36:12;;;;;;;;;0.00;0.00;;;;;;;;5029059;28;9677;-79
2022/12/23 05:38:40;;;;;;;;;0.00;0.00;;;;;;;;5023124;28;8867;-79
2022/12/23 05:41:07;;;;;;;;;0.25;0.25;;;;;;;;5028137;28;8910;-79
2022/12/23 05:43:35;;;;;;;;;0.00;0.00;;;;;;;;5028416;28;8931;-79
2022/12/23 05:46:04;;;;;;;;;0.00;0.00;;;;;;;;5027872;28;9689;-79
2022/12/23 05:48:31;;;;;;;;;1.50;0.00;;;;;;;;5008710;28;8881;-79
2022/12/23 05:50:58;;;;;;;;;2.00;0.50;;;;;;;;5024358;28;8888;-79
2022/12/23 05:53:26;;;;;;;;;0.00;0.00;;;;;;;;5008700;28;8860;-79
2022/12/23 05:55:53;;;;;;;;;1.00;1.00;;;;;;;;5026065;28;8882;-79
2022/12/23 05:58:20;;;;;;;;;1.00;0.50;;;;;;;;5004917;28;8844;-79
2022/12/23 06:00:48;;;;;;;;;0.25;0.25;;;;;;;;5031070;28;8875;-79
2022/12/23 06:03:17;;;;;;;;;0.00;0.00;;;;;;;;5024271;28;8845;-79
2022/12/23 06:05:45;;;;;;;;;0.00;0.00;;;;;;;;5009546;28;8861;-79
2022/12/23 06:08:12;;;;;;;;;0.00;0.00;;;;;;;;5026157;28;8889;-80
2022/12/23 06:10:39;;;;;;;;;0.00;0.00;;;;;;;;5005537;28;8862;-80
2022/12/23 06:13:07;;;;;;;;;0.25;0.25;;;;;;;;5007520;28;8863;-80
2022/12/23 06:15:34;;;;;;;;;0.00;0.00;;;;;;;;5007650;28;8919;-79
2022/12/23 06:18:02;;;;;;;;;0.25;0.25;;;;;;;;5027111;28;8889;-79
2022/12/23 06:20:31;;;;;;;;;0.75;0.75;;;;;;;;5009544;28;8911;-79
2022/12/23 06:22:59;;;;;;;;;1.50;0.00;;;;;;;;5008726;28;8853;-79
2022/12/23 06:25:26;;;;;;;;;0.75;0.75;;;;;;;;5033537;28;8885;-79
2022/12/23 06:27:53;;;;;;;;;0.00;0.00;;;;;;;;5025430;28;8846;-81
2022/12/23 06:30:21;;;;;;;;;0.25;0.25;;;;;;;;5025622;28;8868;-79
2022/12/23 06:32:49;;;;;;;;;4.50;1.25;;;;;;;;5023651;28;9721;-79
2022/12/23 06:35:16;;;;;;;;;2.50;1.00;;;;;;;;5008670;28;9716;-79
2022/12/23 06:37:45;;;;;;;;;0.75;0.75;;;;;;;;5028433;28;8869;-79
2022/12/23 06:40:13;;;;;;;;;1.00;1.00;;;;;;;;5026238;28;8866;-79
2022/12/23 06:42:41;;;;;;;;;2.00;0.00;;;;;;;;5026175;28;8847;-78
2022/12/23 06:45:10;;;;;;;;;1.25;1.25;;;;;;;;5024749;28;8898;-79
2022/12/23 06:47:37;;;;;;;;;2.00;2.00;;;;;;;;5026515;28;8877;-79
2022/12/23 06:50:05;;;;;;;;;1.00;1.00;;;;;;;;5006686;28;8871;-79
2022/12/23 06:52:33;;;;;;;;;2.00;2.00;;;;;;;;5026256;28;8875;-79
2022/12/23 06:55:02;;;;;;;;;3.00;2.00;;;;;;;;5037905;28;8877;-80
2022/12/23 06:57:30;;;;;;;;;3.25;0.50;;;;;;;;5025914;28;8877;-80
2022/12/23 06:59:57;;;;;;;;;2.50;2.00;;;;;;;;5009166;28;8844;-80
2022/12/23 07:02:25;;;;;;;;;1.00;1.00;;;;;;;;4987892;28;8875;-78
2022/12/23 07:04:52;;;;;;;;;2.25;2.00;;;;;;;;5020327;28;8874;-78
2022/12/23 07:07:19;;;;;;;;;0.75;0.75;;;;;;;;5024795;28;8887;-72
2022/12/23 07:09:47;;;;;;;;;5.50;3.00;;;;;;;;5029472;28;8862;-75
2022/12/23 07:12:15;;;;;;;;;4.33;4.33;;;;;;;;5026982;28;9156;-72
2022/12/23 07:14:42;;;;;;;;;1.00;1.00;;;;;;;;5021399;28;8969;-72
2022/12/23 07:17:10;;;;;;;;;4.25;3.00;;;;;;;;5000337;28;9069;-72
2022/12/23 07:19:37;;;;;;;;;1.75;1.75;;;;;;;;4999107;28;8835;-72
2022/12/23 07:22:04;;;;;;;;;3.00;3.00;;;;;;;;4997883;28;8856;-72
2022/12/23 07:24:32;;;;;;;;;2.00;2.00;;;;;;;;5002348;28;8903;-73
2022/12/23 07:26:59;;;;;;;;;3.25;3.25;;;;;;;;4984221;28;9004;-72
2022/12/23 07:29:28;;;;;;;;;4.75;4.25;;;;;;;;5002758;28;9620;-72
2022/12/23 07:31:55;;;;;;;;;4.50;3.50;;;;;;;;4984075;28;8836;-72
2022/12/23 07:34:23;;;;;;;;;4.75;3.75;;;;;;;;5001381;28;8868;-71
2022/12/23 07:36:50;;;;;;;;;3.75;2.25;;;;;;;;4995491;28;9218;-71
2022/12/23 07:39:18;;;;;;;;;4.50;3.00;;;;;;;;5023379;28;8889;-71
2022/12/23 07:41:45;;;;;;;;;3.00;3.00;;;;;;;;5023945;28;8887;-72
2022/12/23 07:44:12;;;;;;;;;7.75;5.50;;;;;;;;5023308;28;8830;-71
2022/12/23 07:46:41;;;;;;;;;9.50;5.25;;;;;;;;5012315;28;8838;-72
2022/12/23 07:49:08;;;;;;;;;5.25;5.25;;;;;;;;5024999;28;8846;-72
2022/12/23 07:51:36;;;;;;;;;17.67;17.67;;;;;;;;5021785;28;8838;-72
2022/12/23 07:54:03;;;;;;;;;4.50;4.50;;;;;;;;5016554;28;9237;-71
2022/12/23 07:56:30;;;;;;;;;11.75;4.75;;;;;;;;5016731;28;8861;-71
2022/12/23 07:58:57;;;;;;;;;7.75;5.50;;;;;;;;5015047;28;8876;-73
2022/12/23 08:01:25;;;;;;;;;5.75;5.75;;;;;;;;5019540;28;8834;-72
2022/12/23 08:03:54;;;;;;;;;6.00;6.00;;;;;;;;5021631;28;8828;-72
2022/12/23 08:06:21;;;;;;;;;8.50;6.25;;;;;;;;5018262;28;8970;-71
2022/12/23 08:08:49;;;;;;;;;3.25;3.25;;;;;;;;5019957;28;8865;-73
2022/12/23 08:11:17;;;;;;;;;3.00;3.00;;;;;;;;5021503;28;8846;-71
2022/12/23 08:13:47;;;;;;;;;6.00;6.00;;;;;;;;5024563;28;8882;-72
2022/12/23 08:16:16;;;;;;;;;6.25;6.25;;;;;;;;5022250;28;8835;-72
2022/12/23 08:18:43;;;;;;;;;4.75;4.25;;;;;;;;5022430;28;8838;-72
2022/12/23 08:21:14;;;;;;;;;5.75;5.75;;;;;;;;5024926;28;8913;-71
2022/12/23 08:23:43;;;;;;;;;2.25;2.25;;;;;;;;5021022;28;8847;-71
2022/12/23 08:26:12;;;;;;;;;5.00;3.75;;;;;;;;5023446;28;8843;-71
2022/12/23 08:28:40;;;;;;;;;5.25;5.25;;;;;;;;5005924;28;8846;-71
2022/12/23 08:31:09;;;;;;;;;3.00;3.00;;;;;;;;5020175;28;8838;-71
2022/12/23 08:33:38;;;;;;;;;4.00;4.00;;;;;;;;5003233;28;9778;-71
2022/12/23 08:36:07;;;;;;;;;3.00;3.00;;;;;;;;5024337;28;8964;-72
2022/12/23 08:38:36;;;;;;;;;2.00;2.00;;;;;;;;5020151;28;8870;-72
2022/12/23 08:41:03;;;;;;;;;2.00;2.00;;;;;;;;5022658;28;8890;-72
2022/12/23 08:43:31;;;;;;;;;3.50;2.75;;;;;;;;5024367;28;8846;-72
2022/12/23 08:45:58;;;;;;;;;3.75;2.00;;;;;;;;5031122;28;8910;-74
2022/12/23 08:48:25;;;;;;;;;5.00;3.50;;;;;;;;5020608;28;8874;-73
2022/12/23 08:50:53;;;;;;;;;4.00;4.00;;;;;;;;5001672;28;8930;-72
2022/12/23 08:53:20;;;;;;;;;6.25;4.00;;;;;;;;4998698;28;8877;-73
2022/12/23 08:55:49;;;;;;;;;2.75;2.75;;;;;;;;5002735;28;8844;-71
2022/12/23 08:58:16;;;;;;;;;3.00;3.00;;;;;;;;5020563;28;8834;-71
2022/12/23 09:00:44;;;;;;;;;3.00;3.00;;;;;;;;5019445;28;8860;-71
2022/12/23 09:03:11;;;;;;;;;1.00;1.00;;;;;;;;5018619;28;8827;-72
2022/12/23 09:05:42;;;;;;;;;3.00;3.00;;;;;;;;5020224;28;8841;-73
2022/12/23 09:08:09;;;;;;;;;2.25;2.25;;;;;;;;5018179;28;9648;-73
2022/12/23 09:10:41;;;;;;;;;3.00;3.00;;;;;;;;5018516;28;9721;-71
2022/12/23 09:13:11;;;;;;;;;2.00;2.00;;;;;;;;5016251;28;8875;-72
2022/12/23 09:15:41;;;;;;;;;3.00;3.00;;;;;;;;5001983;28;8872;-73
2022/12/23 09:18:09;;;;;;;;;3.00;3.00;;;;;;;;5004613;28;8826;-72
2022/12/23 09:20:36;;;;;;;;;2.75;2.00;;;;;;;;4999336;28;8882;-73
2022/12/23 09:23:04;;;;;;;;;2.50;2.50;;;;;;;;5019199;28;8855;-72
2022/12/23 09:25:31;;;;;;;;;3.00;2.50;;;;;;;;5002023;28;8963;-71
2022/12/23 09:27:59;;;;;;;;;2.00;2.00;;;;;;;;5022145;28;8835;-72
2022/12/23 09:30:28;;;;;;;;;2.00;2.00;;;;;;;;5003337;28;8869;-73
2022/12/23 09:32:55;;;;;;;;;2.50;1.25;;;;;;;;5019524;28;8873;-72
2022/12/23 09:35:22;;;;;;;;;1.75;1.75;;;;;;;;5019311;28;8858;-73
2022/12/23 09:37:50;;;;;;;;;2.00;2.00;;;;;;;;5021152;28;9604;-73
2022/12/23 09:40:20;;;;;;;;;1.50;1.50;;;;;;;;5006317;28;8861;-73
2022/12/23 09:42:57;;;;;;;;;0.00;0.00;;;;;;;;5021362;28;8854;-73
2022/12/23 09:45:41;;;;;;;;;1.00;1.00;;;;;;;;5023188;28;8839;-73
2022/12/23 09:48:13;;;;;;;;;1.00;1.00;;;;;;;;5022918;28;8822;-73
2022/12/23 09:50:42;;;;;;;;;0.25;0.25;;;;;;;;5023167;28;8834;-73
2022/12/23 09:53:13;;;;;;;;;1.00;1.00;;;;;;;;5023836;28;9648;-73
2022/12/23 09:55:49;;;;;;;;;0.00;0.00;;;;;;;;5023187;28;8853;-73
2022/12/23 09:58:24;;;;;;;;;2.00;0.00;;;;;;;;5024423;28;9605;-73
2022/12/23 10:01:02;;;;;;;;;0.00;0.00;;;;;;;;5025812;28;8858;-73
2022/12/23 10:03:35;;;;;;;;;0.00;0.00;;;;;;;;5024240;28;8858;-73
2022/12/23 10:06:10;;;;;;;;;1.00;1.00;;;;;;;;5024069;28;8846;-73
2022/12/23 10:08:39;;;;;;;;;0.50;0.25;;;;;;;;5023766;28;8838;-74
2022/12/23 10:11:12;;;;;;;;;0.00;0.00;;;;;;;;5022312;28;8951;-74
2022/12/23 10:13:41;;;;;;;;;0.25;0.00;;;;;;;;5024046;28;8855;-74
2022/12/23 10:16:14;;;;;;;;;0.00;0.00;;;;;;;;5027220;28;8822;-73
2022/12/23 10:18:48;;;;;;;;;0.00;0.00;;;;;;;;5022641;28;8864;-74
2022/12/23 10:21:20;;;;;;;;;0.00;0.00;;;;;;;;5024856;28;8896;-74
2022/12/23 10:23:51;;;;;;;;;0.00;0.00;;;;;;;;5022404;28;8883;-73
2022/12/23 10:26:24;;;;;;;;;0.00;0.00;;;;;;;;5026068;28;8855;-73
2022/12/23 10:28:55;;;;;;;;;1.00;1.00;;;;;;;;5026501;28;8872;-73
2022/12/23 10:31:33;;;;;;;;;1.00;0.00;;;;;;;;5024236;28;8850;-73
2022/12/23 10:34:05;;;;;;;;;0.00;0.00;;;;;;;;5003068;28;8850;-74
2022/12/23 10:36:40;;;;;;;;;0.00;0.00;;;;;;;;5005140;28;8981;-74
2022/12/23 10:39:16;;;;;;;;;0.00;0.00;;;;;;;;5024586;28;8854;-73
2022/12/23 10:41:52;;;;;;;;;0.00;0.00;;;;;;;;5020112;28;8843;-74
2022/12/23 10:44:32;;;;;;;;;3.00;0.00;;;;;;;;5023235;28;8842;-74
2022/12/23 10:47:09;;;;;;;;;0.00;0.00;;;;;;;;5005104;28;8846;-75
2022/12/23 10:49:43;;;;;;;;;0.00;0.00;;;;;;;;5019726;28;8904;-73
2022/12/23 10:52:15;;;;;;;;;0.00;0.00;;;;;;;;5020891;28;8850;-74
2022/12/23 10:54:43;;;;;;;;;0.00;0.00;;;;;;;;5022783;28;8947;-74
2022/12/23 10:57:14;;;;;;;;;0.00;0.00;;;;;;;;5030621;28;8885;-79
2022/12/23 10:59:41;;;;;;;;;0.00;0.00;;;;;;;;5025975;28;8857;-71
2022/12/23 11:02:30;;;;;;;;;0.00;0.00;;;;;;;;5031544;28;8897;-73
2022/12/23 11:04:58;;;;;;;;;0.00;0.00;;;;;;;;5031369;28;8865;-72
2022/12/23 11:07:27;;;;;;;;;0.00;0.00;;;;;;;;5005691;28;8862;-72
2022/12/23 11:09:57;;;;;;;;;0.00;0.00;;;;;;;;5037240;28;8896;-73
2022/12/23 11:12:36;;;;;;;;;0.00;0.00;;;;;;;;5023297;28;8873;-73
2022/12/23 11:15:04;;;;;;;;;0.25;0.00;;;;;;;;5021582;28;8856;-74
2022/12/23 11:17:34;;;;;;;;;1.00;0.00;;;;;;;;5022570;28;8869;-75
2022/12/23 11:20:18;;;;;;;;;0.00;0.00;;;;;;;;5020550;28;8965;-74
2022/12/23 11:22:51;;;;;;;;;0.00;0.00;;;;;;;;5037690;28;8896;-76
2022/12/23 11:25:28;;;;;;;;;0.00;0.00;;;;;;;;5008299;28;9621;-76
2022/12/23 11:27:58;;;;;;;;;0.00;0.00;;;;;;;;5022329;28;8862;-76
2022/12/23 11:30:26;;;;;;;;;0.00;0.00;;;;;;;;5025390;28;8854;-75
2022/12/23 11:32:55;;;;;;;;;0.00;0.00;;;;;;;;5003904;28;8864;-74
2022/12/23 11:35:27;;;;;;;;;0.00;0.00;;;;;;;;5023894;28;9621;-75
2022/12/23 11:37:55;;;;;;;;;0.00;0.00;;;;;;;;5001486;28;8826;-75
2022/12/23 11:40:26;;;;;;;;;0.00;0.00;;;;;;;;5025432;28;8836;-75
2022/12/23 11:42:56;;;;;;;;;0.00;0.00;;;;;;;;5024369;28;8873;-75
2022/12/23 11:45:28;;;;;;;;;0.00;0.00;;;;;;;;5021128;28;8865;-75
2022/12/23 11:47:57;;;;;;;;;0.00;0.00;;;;;;;;5024290;28;8851;-76
2022/12/23 11:50:34;;;;;;;;;0.00;0.00;;;;;;;;5021804;28;8842;-76
2022/12/23 11:53:12;;;;;;;;;0.00;0.00;;;;;;;;5020504;28;8846;-77
2022/12/23 11:55:47;;;;;;;;;0.00;0.00;;;;;;;;5022721;28;8838;-80
2022/12/23 11:58:20;;;;;;;;;0.00;0.00;;;;;;;;5019755;28;9655;-73
2022/12/23 12:00:53;;;;;;;;;0.00;0.00;;;;;;;;5017597;28;8876;-75
2022/12/23 12:03:26;;;;;;;;;0.00;0.00;;;;;;;;5018017;28;8859;-76
2022/12/23 12:05:56;;;;;;;;;0.00;0.00;;;;;;;;5033549;28;8838;-76
2022/12/23 12:08:27;;;;;;;;;0.00;0.00;;;;;;;;5018358;28;8859;-75
2022/12/23 12:11:01;;;;;;;;;0.00;0.00;;;;;;;;5019248;28;8869;-77
2022/12/23 12:13:30;;;;;;;;;0.50;0.00;;;;;;;;5037049;28;8868;-76
2022/12/23 12:16:07;;;;;;;;;0.25;0.00;;;;;;;;5019963;28;8838;-76
2022/12/23 12:18:37;;;;;;;;;0.00;0.00;;;;;;;;4996130;28;8841;-75
2022/12/23 12:21:07;;;;;;;;;0.00;0.00;;;;;;;;4999881;28;8866;-76
2022/12/23 12:23:41;;;;;;;;;0.00;0.00;;;;;;;;5015465;28;9651;-75
2022/12/23 12:26:15;;;;;;;;;0.50;0.00;;;;;;;;5018173;28;8838;-75
2022/12/23 12:28:47;;;;;;;;;0.00;0.00;;;;;;;;5023207;28;8866;-75
2022/12/23 12:31:20;;;;;;;;;0.00;0.00;;;;;;;;5003441;28;8858;-74
2022/12/23 12:33:52;;;;;;;;;0.00;0.00;;;;;;;;5014983;28;8826;-76
2022/12/23 12:36:30;;;;;;;;;0.00;0.00;;;;;;;;5015681;28;8846;-76
2022/12/23 12:38:59;;;;;;;;;0.00;0.00;;;;;;;;5010440;28;8862;-76
2022/12/23 12:41:32;;;;;;;;;0.00;0.00;;;;;;;;4996477;28;8840;-74
2022/12/23 12:44:04;;;;;;;;;0.00;0.00;;;;;;;;5033407;28;9412;-71
2022/12/23 12:46:36;;;;;;;;;0.00;0.00;;;;;;;;5013037;28;8838;-75
2022/12/23 12:49:12;;;;;;;;;0.00;0.00;;;;;;;;5011130;28;8855;-74
2022/12/23 12:51:45;;;;;;;;;0.00;0.00;;;;;;;;5021212;28;8889;-75
2022/12/23 12:54:19;;;;;;;;;0.00;0.00;;;;;;;;5008204;28;9631;-74
2022/12/23 12:56:50;;;;;;;;;0.00;0.00;;;;;;;;5013426;28;8852;-77
2022/12/23 12:59:20;;;;;;;;;0.00;0.00;;;;;;;;4998164;28;9643;-77
2022/12/23 13:01:54;;;;;;;;;0.00;0.00;;;;;;;;5015649;28;8850;-74
2022/12/23 13:04:45;;;;;;;;;0.00;0.00;;;;;;;;5020702;28;8864;-74
2022/12/23 13:07:20;;;;;;;;;0.00;0.00;;;;;;;;5016002;28;9676;-74
2022/12/23 13:09:56;;;;;;;;;1.25;0.00;;;;;;;;5018780;28;8862;-74
2022/12/23 13:12:36;;;;;;;;;0.00;0.00;;;;;;;;5001978;28;8844;-74
2022/12/23 13:15:13;;;;;;;;;0.00;0.00;;;;;;;;5019300;28;8865;-74
2022/12/23 13:17:45;;;;;;;;;0.00;0.00;;;;;;;;5019818;28;8867;-74
2022/12/23 13:20:20;;;;;;;;;0.00;0.00;;;;;;;;5020869;28;8838;-74
2022/12/23 13:22:50;;;;;;;;;0.00;0.00;;;;;;;;5021368;28;8912;-74
2022/12/23 13:25:21;;;;;;;;;0.00;0.00;;;;;;;;5025520;28;8850;-74
2022/12/23 13:27:54;;;;;;;;;0.00;0.00;;;;;;;;5034657;28;8850;-74
2022/12/23 13:30:23;;;;;;;;;0.50;0.00;;;;;;;;4988882;28;8858;-74
2022/12/23 13:33:11;;;;;;;;;0.00;0.00;;;;;;;;5022558;28;8879;-74
2022/12/23 13:35:54;;;;;;;;;0.00;0.00;;;;;;;;5020445;28;8866;-74
2022/12/23 13:38:35;;;;;;;;;0.00;0.00;;;;;;;;5021722;28;9612;-74
2022/12/23 13:41:06;;;;;;;;;0.00;0.00;;;;;;;;5023903;28;9768;-74
2022/12/23 13:43:42;;;;;;;;;0.00;0.00;;;;;;;;5008122;28;8831;-74
2022/12/23 13:46:19;;;;;;;;;0.00;0.00;;;;;;;;5022491;28;8869;-74
2022/12/23 13:48:55;;;;;;;;;3.00;0.00;;;;;;;;5022644;28;8866;-73
2022/12/23 13:51:29;;;;;;;;;0.00;0.00;;;;;;;;5020596;28;9653;-73
2022/12/23 13:54:00;;;;;;;;;0.00;0.00;;;;;;;;5021187;28;8867;-73
2022/12/23 13:56:32;;;;;;;;;1.00;0.00;;;;;;;;5022795;28;9609;-74
2022/12/23 13:59:00;;;;;;;;;0.00;0.00;;;;;;;;5022160;28;8857;-73
2022/12/23 14:01:35;;;;;;;;;1.25;1.25;;;;;;;;5022208;28;8874;-73
2022/12/23 14:04:31;;;;;;;;;0.75;0.00;;;;;;;;5002344;28;8835;-73
2022/12/23 14:07:01;;;;;;;;;0.00;0.00;;;;;;;;4996688;28;8855;-73
2022/12/23 14:09:32;;;;;;;;;1.25;0.00;;;;;;;;5021857;28;8847;-73
2022/12/23 14:12:12;;;;;;;;;0.25;0.00;;;;;;;;5004787;28;8826;-73
2022/12/23 14:14:47;;;;;;;;;0.00;0.00;;;;;;;;5023114;28;8864;-73
2022/12/23 14:17:20;;;;;;;;;0.00;0.00;;;;;;;;5020798;28;8867;-74
2022/12/23 14:20:03;;;;;;;;;0.00;0.00;;;;;;;;5019427;28;8842;-73
2022/12/23 14:22:56;;;;;;;;;1.50;0.00;;;;;;;;5019003;28;8904;-73
2022/12/23 14:25:53;;;;;;;;;0.00;0.00;;;;;;;;5020646;28;9596;-73
2022/12/23 14:28:43;;;;;;;;;0.00;0.00;;;;;;;;5018656;28;8877;-73
2022/12/23 14:31:28;;;;;;;;;0.00;0.00;;;;;;;;4998766;28;8847;-76
2022/12/23 14:34:04;;;;;;;;;0.00;0.00;;;;;;;;5016825;28;9683;-73
2022/12/23 14:36:32;;;;;;;;;0.00;0.00;;;;;;;;5018803;28;8850;-79
2022/12/23 14:39:36;;;;;;;;;2.00;0.00;;;;;;;;5021369;28;8935;-76
2022/12/23 14:42:05;;;;;;;;;0.00;0.00;;;;;;;;5016059;28;8966;-74
2022/12/23 14:44:48;;;;;;;;;1.25;0.00;;;;;;;;5017577;28;8874;-75
2022/12/23 14:47:45;;;;;;;;;2.00;0.00;;;;;;;;5018876;28;8858;-73
2022/12/23 14:50:35;;;;;;;;;0.00;0.00;;;;;;;;4983097;28;8877;-73
2022/12/23 14:53:03;;;;;;;;;0.00;0.00;;;;;;;;5016330;28;8846;-74
2022/12/23 14:55:47;;;;;;;;;0.00;0.00;;;;;;;;5019482;28;8862;-74
2022/12/23 14:58:37;;;;;;;;;0.00;0.00;;;;;;;;5018158;28;8842;-75
2022/12/23 15:01:10;;;;;;;;;1.00;0.00;;;;;;;;5012239;28;10171;-74
2022/12/23 15:03:44;;;;;;;;;0.00;0.00;;;;;;;;5010797;28;8847;-74
2022/12/23 15:06:17;;;;;;;;;1.00;1.00;;;;;;;;5016411;28;8861;-73
2022/12/23 15:08:47;;;;;;;;;0.00;0.00;;;;;;;;5015396;28;8878;-74
2022/12/23 15:11:22;;;;;;;;;1.50;0.00;;;;;;;;5021251;28;8871;-74
2022/12/23 15:13:53;;;;;;;;;0.75;0.75;;;;;;;;5000077;28;8862;-74
2022/12/23 15:16:30;;;;;;;;;1.00;1.00;;;;;;;;5017072;28;8854;-72
2022/12/23 15:19:02;;;;;;;;;2.50;0.00;;;;;;;;5020024;28;8844;-74
2022/12/23 15:21:31;;;;;;;;;0.25;0.25;;;;;;;;5021268;28;8826;-74
2022/12/23 15:23:59;;;;;;;;;0.00;0.00;;;;;;;;5020368;28;8856;-75
2022/12/23 15:26:28;;;;;;;;;0.50;0.50;;;;;;;;5034797;28;8904;-74
2022/12/23 15:28:58;;;;;;;;;0.75;0.75;;;;;;;;5015960;28;8846;-75
2022/12/23 15:31:28;;;;;;;;;0.75;0.75;;;;;;;;5000739;28;8854;-74
2022/12/23 15:33:56;;;;;;;;;1.00;1.00;;;;;;;;5014764;28;8839;-75
2022/12/23 15:36:30;;;;;;;;;1.00;1.00;;;;;;;;5009351;28;8842;-76
2022/12/23 15:38:58;;;;;;;;;1.00;1.00;;;;;;;;4997493;28;8842;-73
2022/12/23 15:41:26;;;;;;;;;2.25;0.00;;;;;;;;5015061;28;8844;-74
2022/12/23 15:44:00;;;;;;;;;0.50;0.50;;;;;;;;5017509;28;8870;-73
2022/12/23 15:46:29;;;;;;;;;2.25;1.00;;;;;;;;5020593;28;8834;-74
2022/12/23 15:48:56;;;;;;;;;1.50;1.50;;;;;;;;4992739;28;8866;-74